sensor_id;sensor_type;location;lat;lon;timestamp;P1;durP1;ratioP1;P2;durP2;ratioP2
69260;SDS011;56378;52.404;20.816;2023-02-18T00:02:11;6.35;;;1.90;;
69260;SDS011;56378;52.404;20.816;2023-02-18T00:04:37;7.10;;;1.70;;
69260;SDS011;56378;52.404;20.816;2023-02-18T00:07:02;8.90;;;1.60;;
69260;SDS011;56378;52.404;20.816;2023-02-18T00:09:28;8.80;;;1.60;;
69260;SDS011;56378;52.404;20.816;2023-02-18T00:11:54;7.18;;;1.35;;
69260;SDS011;56378;52.404;20.816;2023-02-18T00:14:19;4.37;;;1.10;;
69260;SDS011;56378;52.404;20.816;2023-02-18T00:16:45;6.88;;;1.23;;
69260;SDS011;56378;52.404;20.816;2023-02-18T00:19:15;7.85;;;1.45;;
69260;SDS011;56378;52.404;20.816;2023-02-18T00:21:44;5.47;;;1.17;;
69260;SDS011;56378;52.404;20.816;2023-02-18T00:24:11;7.63;;;1.17;;
69260;SDS011;56378;52.404;20.816;2023-02-18T00:26:42;10.75;;;1.38;;
69260;SDS011;56378;52.404;20.816;2023-02-18T00:29:08;7.60;;;0.90;;
69260;SDS011;56378;52.404;20.816;2023-02-18T00:31:35;8.65;;;1.15;;
69260;SDS011;56378;52.404;20.816;2023-02-18T00:34:02;8.27;;;1.38;;
69260;SDS011;56378;52.404;20.816;2023-02-18T00:36:29;8.43;;;1.43;;
69260;SDS011;56378;52.404;20.816;2023-02-18T00:38:57;9.93;;;1.00;;
69260;SDS011;56378;52.404;20.816;2023-02-18T00:41:25;8.88;;;1.17;;
69260;SDS011;56378;52.404;20.816;2023-02-18T00:43:52;9.23;;;1.50;;
69260;SDS011;56378;52.404;20.816;2023-02-18T00:46:19;7.47;;;1.23;;
69260;SDS011;56378;52.404;20.816;2023-02-18T00:48:45;8.83;;;1.07;;
69260;SDS011;56378;52.404;20.816;2023-02-18T00:51:11;8.18;;;1.10;;
69260;SDS011;56378;52.404;20.816;2023-02-18T00:53:37;8.82;;;1.13;;
69260;SDS011;56378;52.404;20.816;2023-02-18T00:56:04;8.27;;;1.20;;
69260;SDS011;56378;52.404;20.816;2023-02-18T00:58:30;9.73;;;1.40;;
69260;SDS011;56378;52.404;20.816;2023-02-18T01:17:29;8.63;;;1.20;;
69260;SDS011;56378;52.404;20.816;2023-02-18T01:19:54;7.57;;;1.52;;
69260;SDS011;56378;52.404;20.816;2023-02-18T01:22:20;12.77;;;1.93;;
69260;SDS011;56378;52.404;20.816;2023-02-18T01:24:46;9.32;;;1.13;;
69260;SDS011;56378;52.404;20.816;2023-02-18T01:27:11;8.03;;;1.10;;
69260;SDS011;56378;52.404;20.816;2023-02-18T01:29:37;9.13;;;1.27;;
69260;SDS011;56378;52.404;20.816;2023-02-18T01:32:03;4.50;;;1.08;;
69260;SDS011;56378;52.404;20.816;2023-02-18T01:34:28;12.20;;;1.13;;
69260;SDS011;56378;52.404;20.816;2023-02-18T01:36:54;8.47;;;0.93;;
69260;SDS011;56378;52.404;20.816;2023-02-18T01:39:20;8.80;;;1.27;;
69260;SDS011;56378;52.404;20.816;2023-02-18T01:41:46;6.33;;;0.90;;
69260;SDS011;56378;52.404;20.816;2023-02-18T01:44:16;6.65;;;1.20;;
69260;SDS011;56378;52.404;20.816;2023-02-18T01:46:47;8.20;;;1.13;;
69260;SDS011;56378;52.404;20.816;2023-02-18T01:49:22;8.50;;;1.15;;
69260;SDS011;56378;52.404;20.816;2023-02-18T01:52:10;8.83;;;1.00;;
69260;SDS011;56378;52.404;20.816;2023-02-18T01:54:40;8.30;;;1.00;;
69260;SDS011;56378;52.404;20.816;2023-02-18T01:57:10;8.00;;;0.85;;
69260;SDS011;56378;52.404;20.816;2023-02-18T01:59:39;5.95;;;0.80;;
69260;SDS011;56378;52.404;20.816;2023-02-18T02:02:10;9.70;;;1.60;;
69260;SDS011;56378;52.404;20.816;2023-02-18T02:04:39;7.10;;;1.10;;
69260;SDS011;56378;52.404;20.816;2023-02-18T02:07:05;8.45;;;0.90;;
69260;SDS011;56378;52.404;20.816;2023-02-18T02:09:32;8.10;;;1.13;;
69260;SDS011;56378;52.404;20.816;2023-02-18T02:12:08;6.20;;;1.00;;
69260;SDS011;56378;52.404;20.816;2023-02-18T02:25:52;11.95;;;1.35;;
69260;SDS011;56378;52.404;20.816;2023-02-18T02:32:06;11.48;;;1.20;;
69260;SDS011;56378;52.404;20.816;2023-02-18T02:34:48;6.75;;;0.70;;
69260;SDS011;56378;52.404;20.816;2023-02-18T02:40:42;5.82;;;0.98;;
69260;SDS011;56378;52.404;20.816;2023-02-18T02:53:42;11.25;;;1.75;;
69260;SDS011;56378;52.404;20.816;2023-02-18T02:56:14;7.47;;;1.17;;
69260;SDS011;56378;52.404;20.816;2023-02-18T02:58:46;9.87;;;1.17;;
69260;SDS011;56378;52.404;20.816;2023-02-18T03:12:24;10.17;;;1.50;;
69260;SDS011;56378;52.404;20.816;2023-02-18T03:15:03;6.68;;;1.17;;
69260;SDS011;56378;52.404;20.816;2023-02-18T03:17:30;8.75;;;1.20;;
69260;SDS011;56378;52.404;20.816;2023-02-18T03:20:09;6.70;;;1.20;;
69260;SDS011;56378;52.404;20.816;2023-02-18T03:22:49;8.45;;;0.95;;
69260;SDS011;56378;52.404;20.816;2023-02-18T03:25:17;7.57;;;1.00;;
69260;SDS011;56378;52.404;20.816;2023-02-18T03:27:49;12.02;;;1.70;;
69260;SDS011;56378;52.404;20.816;2023-02-18T03:30:18;5.22;;;1.30;;
69260;SDS011;56378;52.404;20.816;2023-02-18T03:32:52;9.50;;;1.20;;
69260;SDS011;56378;52.404;20.816;2023-02-18T03:35:21;10.32;;;1.27;;
69260;SDS011;56378;52.404;20.816;2023-02-18T03:37:53;9.10;;;1.30;;
69260;SDS011;56378;52.404;20.816;2023-02-18T03:40:29;6.57;;;0.88;;
69260;SDS011;56378;52.404;20.816;2023-02-18T03:42:56;7.97;;;0.98;;
69260;SDS011;56378;52.404;20.816;2023-02-18T03:45:25;9.35;;;1.15;;
69260;SDS011;56378;52.404;20.816;2023-02-18T03:47:51;12.63;;;1.10;;
69260;SDS011;56378;52.404;20.816;2023-02-18T03:50:17;6.17;;;1.13;;
69260;SDS011;56378;52.404;20.816;2023-02-18T03:52:43;10.60;;;1.10;;
69260;SDS011;56378;52.404;20.816;2023-02-18T03:55:08;7.13;;;1.07;;
69260;SDS011;56378;52.404;20.816;2023-02-18T03:57:34;9.80;;;1.15;;
69260;SDS011;56378;52.404;20.816;2023-02-18T04:00:00;9.90;;;1.33;;
69260;SDS011;56378;52.404;20.816;2023-02-18T04:02:26;11.27;;;1.60;;
69260;SDS011;56378;52.404;20.816;2023-02-18T04:04:52;8.95;;;1.10;;
69260;SDS011;56378;52.404;20.816;2023-02-18T04:07:18;7.40;;;0.90;;
69260;SDS011;56378;52.404;20.816;2023-02-18T04:09:43;7.87;;;1.10;;
69260;SDS011;56378;52.404;20.816;2023-02-18T04:12:09;7.30;;;1.08;;
69260;SDS011;56378;52.404;20.816;2023-02-18T04:14:35;13.07;;;1.30;;
69260;SDS011;56378;52.404;20.816;2023-02-18T04:17:00;7.97;;;0.90;;
69260;SDS011;56378;52.404;20.816;2023-02-18T04:19:26;10.68;;;1.42;;
69260;SDS011;56378;52.404;20.816;2023-02-18T04:21:52;11.10;;;1.50;;
69260;SDS011;56378;52.404;20.816;2023-02-18T04:24:18;10.57;;;1.02;;
69260;SDS011;56378;52.404;20.816;2023-02-18T04:26:43;10.57;;;1.00;;
69260;SDS011;56378;52.404;20.816;2023-02-18T04:29:09;9.35;;;1.02;;
69260;SDS011;56378;52.404;20.816;2023-02-18T04:31:35;10.33;;;0.97;;
69260;SDS011;56378;52.404;20.816;2023-02-18T04:34:00;9.75;;;1.10;;
69260;SDS011;56378;52.404;20.816;2023-02-18T04:36:26;11.77;;;1.50;;
69260;SDS011;56378;52.404;20.816;2023-02-18T04:38:52;8.52;;;1.15;;
69260;SDS011;56378;52.404;20.816;2023-02-18T04:41:18;14.13;;;1.87;;
69260;SDS011;56378;52.404;20.816;2023-02-18T04:43:43;8.85;;;1.02;;
69260;SDS011;56378;52.404;20.816;2023-02-18T04:46:09;11.57;;;1.17;;
69260;SDS011;56378;52.404;20.816;2023-02-18T04:48:35;16.75;;;1.75;;
69260;SDS011;56378;52.404;20.816;2023-02-18T04:51:01;8.40;;;1.50;;
69260;SDS011;56378;52.404;20.816;2023-02-18T04:53:26;10.98;;;1.60;;
69260;SDS011;56378;52.404;20.816;2023-02-18T04:55:52;8.63;;;1.23;;
69260;SDS011;56378;52.404;20.816;2023-02-18T04:58:19;12.13;;;1.40;;
69260;SDS011;56378;52.404;20.816;2023-02-18T05:00:45;9.40;;;1.25;;
69260;SDS011;56378;52.404;20.816;2023-02-18T05:03:11;7.27;;;1.00;;
69260;SDS011;56378;52.404;20.816;2023-02-18T05:05:37;7.32;;;1.10;;
69260;SDS011;56378;52.404;20.816;2023-02-18T05:08:03;10.40;;;1.67;;
69260;SDS011;56378;52.404;20.816;2023-02-18T05:10:29;10.18;;;1.60;;
69260;SDS011;56378;52.404;20.816;2023-02-18T05:12:55;14.87;;;2.23;;
69260;SDS011;56378;52.404;20.816;2023-02-18T05:15:21;9.57;;;1.15;;
69260;SDS011;56378;52.404;20.816;2023-02-18T05:17:46;10.70;;;1.00;;
69260;SDS011;56378;52.404;20.816;2023-02-18T05:20:12;8.50;;;1.40;;
69260;SDS011;56378;52.404;20.816;2023-02-18T05:22:38;11.98;;;1.13;;
69260;SDS011;56378;52.404;20.816;2023-02-18T05:25:04;7.63;;;0.80;;
69260;SDS011;56378;52.404;20.816;2023-02-18T05:27:30;12.77;;;1.30;;
69260;SDS011;56378;52.404;20.816;2023-02-18T05:29:55;9.48;;;1.15;;
69260;SDS011;56378;52.404;20.816;2023-02-18T05:32:22;9.20;;;1.30;;
69260;SDS011;56378;52.404;20.816;2023-02-18T05:34:48;9.35;;;1.30;;
69260;SDS011;56378;52.404;20.816;2023-02-18T05:37:14;12.18;;;1.52;;
69260;SDS011;56378;52.404;20.816;2023-02-18T05:39:41;12.13;;;1.73;;
69260;SDS011;56378;52.404;20.816;2023-02-18T05:42:06;8.85;;;1.10;;
69260;SDS011;56378;52.404;20.816;2023-02-18T05:44:32;10.13;;;1.80;;
69260;SDS011;56378;52.404;20.816;2023-02-18T05:46:59;9.65;;;1.10;;
69260;SDS011;56378;52.404;20.816;2023-02-18T05:49:26;7.97;;;1.33;;
69260;SDS011;56378;52.404;20.816;2023-02-18T05:51:53;4.30;;;0.70;;
69260;SDS011;56378;52.404;20.816;2023-02-18T05:54:19;8.10;;;1.13;;
69260;SDS011;56378;52.404;20.816;2023-02-18T05:56:45;9.82;;;1.40;;
69260;SDS011;56378;52.404;20.816;2023-02-18T05:59:11;9.00;;;0.93;;
69260;SDS011;56378;52.404;20.816;2023-02-18T06:01:37;11.37;;;1.90;;
69260;SDS011;56378;52.404;20.816;2023-02-18T06:04:02;10.27;;;1.25;;
69260;SDS011;56378;52.404;20.816;2023-02-18T06:06:28;11.63;;;1.50;;
69260;SDS011;56378;52.404;20.816;2023-02-18T06:08:54;10.45;;;1.42;;
69260;SDS011;56378;52.404;20.816;2023-02-18T06:11:20;8.37;;;1.20;;
69260;SDS011;56378;52.404;20.816;2023-02-18T06:13:45;6.55;;;0.85;;
69260;SDS011;56378;52.404;20.816;2023-02-18T06:16:11;7.40;;;1.10;;
69260;SDS011;56378;52.404;20.816;2023-02-18T06:18:37;10.43;;;1.20;;
69260;SDS011;56378;52.404;20.816;2023-02-18T06:21:03;13.40;;;1.77;;
69260;SDS011;56378;52.404;20.816;2023-02-18T06:23:29;8.63;;;1.55;;
69260;SDS011;56378;52.404;20.816;2023-02-18T06:25:54;9.80;;;1.00;;
69260;SDS011;56378;52.404;20.816;2023-02-18T06:28:20;9.70;;;1.37;;
69260;SDS011;56378;52.404;20.816;2023-02-18T06:30:46;12.52;;;1.80;;
69260;SDS011;56378;52.404;20.816;2023-02-18T06:33:12;5.18;;;0.90;;
69260;SDS011;56378;52.404;20.816;2023-02-18T06:35:38;8.60;;;1.17;;
69260;SDS011;56378;52.404;20.816;2023-02-18T06:38:03;10.77;;;1.43;;
69260;SDS011;56378;52.404;20.816;2023-02-18T06:40:29;8.68;;;1.08;;
69260;SDS011;56378;52.404;20.816;2023-02-18T06:42:55;11.82;;;1.30;;
69260;SDS011;56378;52.404;20.816;2023-02-18T06:45:21;10.37;;;1.30;;
69260;SDS011;56378;52.404;20.816;2023-02-18T06:47:47;8.98;;;1.27;;
69260;SDS011;56378;52.404;20.816;2023-02-18T06:50:13;7.57;;;1.30;;
69260;SDS011;56378;52.404;20.816;2023-02-18T06:52:39;8.05;;;1.50;;
69260;SDS011;56378;52.404;20.816;2023-02-18T06:55:05;11.23;;;1.73;;
69260;SDS011;56378;52.404;20.816;2023-02-18T06:57:32;8.35;;;1.25;;
69260;SDS011;56378;52.404;20.816;2023-02-18T06:59:57;9.40;;;1.60;;
69260;SDS011;56378;52.404;20.816;2023-02-18T07:02:23;7.60;;;1.13;;
69260;SDS011;56378;52.404;20.816;2023-02-18T07:04:49;11.67;;;1.87;;
69260;SDS011;56378;52.404;20.816;2023-02-18T07:07:15;10.38;;;1.63;;
69260;SDS011;56378;52.404;20.816;2023-02-18T07:09:41;11.10;;;1.20;;
69260;SDS011;56378;52.404;20.816;2023-02-18T07:12:06;8.38;;;1.58;;
69260;SDS011;56378;52.404;20.816;2023-02-18T07:14:32;8.88;;;1.35;;
69260;SDS011;56378;52.404;20.816;2023-02-18T07:16:58;8.03;;;1.10;;
69260;SDS011;56378;52.404;20.816;2023-02-18T07:19:23;9.85;;;1.50;;
69260;SDS011;56378;52.404;20.816;2023-02-18T07:21:49;18.47;;;1.70;;
69260;SDS011;56378;52.404;20.816;2023-02-18T07:24:15;8.43;;;1.47;;
69260;SDS011;56378;52.404;20.816;2023-02-18T07:26:40;6.75;;;1.25;;
69260;SDS011;56378;52.404;20.816;2023-02-18T07:29:06;13.73;;;1.40;;
69260;SDS011;56378;52.404;20.816;2023-02-18T07:31:32;7.88;;;1.35;;
69260;SDS011;56378;52.404;20.816;2023-02-18T07:33:57;8.13;;;1.20;;
69260;SDS011;56378;52.404;20.816;2023-02-18T07:36:23;11.07;;;1.65;;
69260;SDS011;56378;52.404;20.816;2023-02-18T07:38:49;11.50;;;1.38;;
69260;SDS011;56378;52.404;20.816;2023-02-18T07:41:16;5.73;;;1.33;;
69260;SDS011;56378;52.404;20.816;2023-02-18T07:43:44;8.90;;;1.63;;
69260;SDS011;56378;52.404;20.816;2023-02-18T07:46:10;11.10;;;1.43;;
69260;SDS011;56378;52.404;20.816;2023-02-18T07:48:35;10.38;;;1.63;;
69260;SDS011;56378;52.404;20.816;2023-02-18T07:51:05;7.65;;;1.33;;
69260;SDS011;56378;52.404;20.816;2023-02-18T07:53:32;5.90;;;1.33;;
69260;SDS011;56378;52.404;20.816;2023-02-18T07:55:58;11.37;;;1.67;;
69260;SDS011;56378;52.404;20.816;2023-02-18T07:58:26;11.15;;;1.45;;
69260;SDS011;56378;52.404;20.816;2023-02-18T08:00:53;9.43;;;1.27;;
69260;SDS011;56378;52.404;20.816;2023-02-18T08:03:20;10.63;;;2.03;;
69260;SDS011;56378;52.404;20.816;2023-02-18T08:05:50;10.45;;;1.42;;
69260;SDS011;56378;52.404;20.816;2023-02-18T08:08:18;10.90;;;1.30;;
69260;SDS011;56378;52.404;20.816;2023-02-18T08:10:45;10.23;;;1.60;;
69260;SDS011;56378;52.404;20.816;2023-02-18T08:13:12;10.18;;;1.52;;
69260;SDS011;56378;52.404;20.816;2023-02-18T08:15:38;10.53;;;1.67;;
69260;SDS011;56378;52.404;20.816;2023-02-18T08:18:05;6.03;;;1.20;;
69260;SDS011;56378;52.404;20.816;2023-02-18T08:20:35;11.25;;;1.83;;
69260;SDS011;56378;52.404;20.816;2023-02-18T08:23:02;10.10;;;2.05;;
69260;SDS011;56378;52.404;20.816;2023-02-18T08:25:29;10.15;;;1.98;;
69260;SDS011;56378;52.404;20.816;2023-02-18T08:27:54;16.30;;;2.50;;
69260;SDS011;56378;52.404;20.816;2023-02-18T08:30:21;11.10;;;1.80;;
69260;SDS011;56378;52.404;20.816;2023-02-18T08:32:46;10.07;;;1.10;;
69260;SDS011;56378;52.404;20.816;2023-02-18T08:35:12;13.07;;;1.70;;
69260;SDS011;56378;52.404;20.816;2023-02-18T08:37:38;12.03;;;1.73;;
69260;SDS011;56378;52.404;20.816;2023-02-18T08:40:04;6.77;;;1.30;;
69260;SDS011;56378;52.404;20.816;2023-02-18T08:42:30;9.77;;;1.20;;
69260;SDS011;56378;52.404;20.816;2023-02-18T08:44:56;11.30;;;1.70;;
69260;SDS011;56378;52.404;20.816;2023-02-18T08:47:21;10.57;;;2.00;;
69260;SDS011;56378;52.404;20.816;2023-02-18T08:49:47;12.73;;;1.75;;
69260;SDS011;56378;52.404;20.816;2023-02-18T08:52:13;10.17;;;1.60;;
69260;SDS011;56378;52.404;20.816;2023-02-18T08:54:39;8.98;;;1.30;;
69260;SDS011;56378;52.404;20.816;2023-02-18T08:57:04;12.87;;;1.73;;
69260;SDS011;56378;52.404;20.816;2023-02-18T08:59:30;13.60;;;1.65;;
69260;SDS011;56378;52.404;20.816;2023-02-18T09:01:56;9.43;;;1.97;;
69260;SDS011;56378;52.404;20.816;2023-02-18T09:04:22;13.52;;;1.70;;
69260;SDS011;56378;52.404;20.816;2023-02-18T09:06:48;9.30;;;1.77;;
69260;SDS011;56378;52.404;20.816;2023-02-18T09:09:14;9.05;;;1.90;;
69260;SDS011;56378;52.404;20.816;2023-02-18T09:11:41;9.13;;;1.40;;
69260;SDS011;56378;52.404;20.816;2023-02-18T09:14:07;14.35;;;2.10;;
69260;SDS011;56378;52.404;20.816;2023-02-18T09:16:33;10.03;;;1.33;;
69260;SDS011;56378;52.404;20.816;2023-02-18T09:18:59;10.70;;;1.27;;
69260;SDS011;56378;52.404;20.816;2023-02-18T09:21:25;10.82;;;1.85;;
69260;SDS011;56378;52.404;20.816;2023-02-18T09:23:51;9.90;;;1.37;;
69260;SDS011;56378;52.404;20.816;2023-02-18T09:26:18;9.38;;;1.40;;
69260;SDS011;56378;52.404;20.816;2023-02-18T09:28:47;11.52;;;1.75;;
69260;SDS011;56378;52.404;20.816;2023-02-18T09:31:15;10.87;;;1.80;;
69260;SDS011;56378;52.404;20.816;2023-02-18T09:33:43;11.95;;;1.60;;
69260;SDS011;56378;52.404;20.816;2023-02-18T09:36:12;15.32;;;1.95;;
69260;SDS011;56378;52.404;20.816;2023-02-18T09:38:38;10.45;;;1.90;;
69260;SDS011;56378;52.404;20.816;2023-02-18T09:41:05;8.80;;;1.40;;
69260;SDS011;56378;52.404;20.816;2023-02-18T09:43:41;14.70;;;2.22;;
69260;SDS011;56378;52.404;20.816;2023-02-18T09:46:21;14.93;;;1.75;;
69260;SDS011;56378;52.404;20.816;2023-02-18T09:49:05;13.05;;;2.13;;
69260;SDS011;56378;52.404;20.816;2023-02-18T09:51:38;13.60;;;1.40;;
69260;SDS011;56378;52.404;20.816;2023-02-18T09:54:03;11.80;;;2.03;;
69260;SDS011;56378;52.404;20.816;2023-02-18T09:56:30;11.95;;;1.75;;
69260;SDS011;56378;52.404;20.816;2023-02-18T09:59:00;12.33;;;1.40;;
69260;SDS011;56378;52.404;20.816;2023-02-18T10:04:23;11.98;;;1.50;;
69260;SDS011;56378;52.404;20.816;2023-02-18T10:06:48;8.55;;;1.70;;
69260;SDS011;56378;52.404;20.816;2023-02-18T10:09:20;9.23;;;1.50;;
69260;SDS011;56378;52.404;20.816;2023-02-18T10:11:51;8.23;;;1.50;;
69260;SDS011;56378;52.404;20.816;2023-02-18T10:14:20;8.80;;;1.77;;
69260;SDS011;56378;52.404;20.816;2023-02-18T10:16:46;9.18;;;1.98;;
69260;SDS011;56378;52.404;20.816;2023-02-18T10:22:13;12.20;;;2.30;;
69260;SDS011;56378;52.404;20.816;2023-02-18T10:27:08;11.63;;;1.90;;
69260;SDS011;56378;52.404;20.816;2023-02-18T10:29:39;11.10;;;2.60;;
69260;SDS011;56378;52.404;20.816;2023-02-18T10:34:48;13.90;;;3.28;;
69260;SDS011;56378;52.404;20.816;2023-02-18T10:37:41;17.83;;;3.78;;
69260;SDS011;56378;52.404;20.816;2023-02-18T10:50:50;11.15;;;1.52;;
69260;SDS011;56378;52.404;20.816;2023-02-18T10:53:36;10.25;;;1.50;;
69260;SDS011;56378;52.404;20.816;2023-02-18T10:56:05;7.90;;;1.73;;
69260;SDS011;56378;52.404;20.816;2023-02-18T10:58:36;10.38;;;1.85;;
69260;SDS011;56378;52.404;20.816;2023-02-18T11:01:12;11.70;;;2.25;;
69260;SDS011;56378;52.404;20.816;2023-02-18T11:03:41;10.55;;;1.98;;
69260;SDS011;56378;52.404;20.816;2023-02-18T11:06:24;9.73;;;2.28;;
69260;SDS011;56378;52.404;20.816;2023-02-18T11:08:54;11.43;;;1.70;;
69260;SDS011;56378;52.404;20.816;2023-02-18T11:11:22;11.50;;;1.50;;
69260;SDS011;56378;52.404;20.816;2023-02-18T11:13:53;14.05;;;1.90;;
69260;SDS011;56378;52.404;20.816;2023-02-18T11:16:21;16.00;;;1.67;;
69260;SDS011;56378;52.404;20.816;2023-02-18T11:18:48;9.93;;;1.70;;
69260;SDS011;56378;52.404;20.816;2023-02-18T11:21:19;7.97;;;1.57;;
69260;SDS011;56378;52.404;20.816;2023-02-18T11:24:05;14.23;;;2.28;;
69260;SDS011;56378;52.404;20.816;2023-02-18T11:26:33;10.45;;;2.53;;
69260;SDS011;56378;52.404;20.816;2023-02-18T11:29:05;8.68;;;1.40;;
69260;SDS011;56378;52.404;20.816;2023-02-18T11:31:40;11.50;;;1.65;;
69260;SDS011;56378;52.404;20.816;2023-02-18T11:34:13;9.57;;;1.40;;
69260;SDS011;56378;52.404;20.816;2023-02-18T11:36:42;8.88;;;1.88;;
69260;SDS011;56378;52.404;20.816;2023-02-18T11:41:45;11.65;;;1.50;;
69260;SDS011;56378;52.404;20.816;2023-02-18T11:46:56;11.33;;;1.87;;
69260;SDS011;56378;52.404;20.816;2023-02-18T11:49:26;9.27;;;1.65;;
69260;SDS011;56378;52.404;20.816;2023-02-18T11:51:54;7.90;;;1.83;;
69260;SDS011;56378;52.404;20.816;2023-02-18T11:54:28;9.48;;;1.55;;
69260;SDS011;56378;52.404;20.816;2023-02-18T11:59:23;12.43;;;2.00;;
69260;SDS011;56378;52.404;20.816;2023-02-18T12:01:50;9.35;;;1.42;;
69260;SDS011;56378;52.404;20.816;2023-02-18T12:04:32;6.55;;;1.38;;
69260;SDS011;56378;52.404;20.816;2023-02-18T12:09:49;10.02;;;2.05;;
69260;SDS011;56378;52.404;20.816;2023-02-18T12:12:33;8.73;;;1.47;;
69260;SDS011;56378;52.404;20.816;2023-02-18T12:15:11;6.25;;;1.50;;
69260;SDS011;56378;52.404;20.816;2023-02-18T12:31:15;9.63;;;1.60;;
69260;SDS011;56378;52.404;20.816;2023-02-18T12:34:02;12.38;;;1.80;;
69260;SDS011;56378;52.404;20.816;2023-02-18T12:36:56;12.02;;;1.80;;
69260;SDS011;56378;52.404;20.816;2023-02-18T13:04:11;10.90;;;1.98;;
69260;SDS011;56378;52.404;20.816;2023-02-18T13:17:41;9.20;;;1.93;;
69260;SDS011;56378;52.404;20.816;2023-02-18T13:20:12;12.23;;;1.92;;
69260;SDS011;56378;52.404;20.816;2023-02-18T13:23:02;9.88;;;2.10;;
69260;SDS011;56378;52.404;20.816;2023-02-18T13:25:29;15.07;;;2.17;;
69260;SDS011;56378;52.404;20.816;2023-02-18T13:36:36;12.70;;;1.93;;
69260;SDS011;56378;52.404;20.816;2023-02-18T13:39:16;9.18;;;1.85;;
69260;SDS011;56378;52.404;20.816;2023-02-18T13:41:45;11.60;;;1.63;;
69260;SDS011;56378;52.404;20.816;2023-02-18T13:46:50;12.30;;;1.90;;
69260;SDS011;56378;52.404;20.816;2023-02-18T13:49:21;9.60;;;1.80;;
69260;SDS011;56378;52.404;20.816;2023-02-18T13:51:50;11.20;;;1.83;;
69260;SDS011;56378;52.404;20.816;2023-02-18T13:54:26;19.95;;;2.83;;
69260;SDS011;56378;52.404;20.816;2023-02-18T13:57:18;10.38;;;1.90;;
69260;SDS011;56378;52.404;20.816;2023-02-18T13:59:45;9.27;;;2.20;;
69260;SDS011;56378;52.404;20.816;2023-02-18T14:09:58;7.73;;;1.57;;
69260;SDS011;56378;52.404;20.816;2023-02-18T14:14:51;11.98;;;1.95;;
69260;SDS011;56378;52.404;20.816;2023-02-18T14:20:45;11.38;;;2.72;;
69260;SDS011;56378;52.404;20.816;2023-02-18T14:22:48;9.52;;;1.88;;
69260;SDS011;56378;52.404;20.816;2023-02-18T14:27:44;13.25;;;1.58;;
69260;SDS011;56378;52.404;20.816;2023-02-18T14:30:18;10.38;;;1.60;;
69260;SDS011;56378;52.404;20.816;2023-02-18T14:32:51;10.68;;;2.67;;
69260;SDS011;56378;52.404;20.816;2023-02-18T14:38:08;15.93;;;2.70;;
69260;SDS011;56378;52.404;20.816;2023-02-18T14:43:17;9.43;;;1.88;;
69260;SDS011;56378;52.404;20.816;2023-02-18T14:49:16;9.25;;;1.70;;
69260;SDS011;56378;52.404;20.816;2023-02-18T14:52:03;9.02;;;1.77;;
69260;SDS011;56378;52.404;20.816;2023-02-18T14:54:35;10.85;;;1.80;;
69260;SDS011;56378;52.404;20.816;2023-02-18T14:57:13;14.88;;;1.80;;
69260;SDS011;56378;52.404;20.816;2023-02-18T14:59:43;10.73;;;1.70;;
69260;SDS011;56378;52.404;20.816;2023-02-18T15:02:26;10.95;;;2.38;;
69260;SDS011;56378;52.404;20.816;2023-02-18T15:04:57;11.48;;;1.98;;
69260;SDS011;56378;52.404;20.816;2023-02-18T15:07:56;8.05;;;1.70;;
69260;SDS011;56378;52.404;20.816;2023-02-18T15:11:10;13.05;;;2.90;;
69260;SDS011;56378;52.404;20.816;2023-02-18T15:13:31;11.23;;;2.27;;
69260;SDS011;56378;52.404;20.816;2023-02-18T15:16:04;10.48;;;2.35;;
69260;SDS011;56378;52.404;20.816;2023-02-18T15:18:33;10.77;;;3.20;;
69260;SDS011;56378;52.404;20.816;2023-02-18T15:21:15;6.18;;;1.98;;
69260;SDS011;56378;52.404;20.816;2023-02-18T15:23:46;6.65;;;2.20;;
69260;SDS011;56378;52.404;20.816;2023-02-18T15:26:12;7.57;;;2.10;;
69260;SDS011;56378;52.404;20.816;2023-02-18T15:28:53;7.35;;;1.73;;
69260;SDS011;56378;52.404;20.816;2023-02-18T15:31:27;5.47;;;1.80;;
69260;SDS011;56378;52.404;20.816;2023-02-18T15:33:55;5.55;;;1.83;;
69260;SDS011;56378;52.404;20.816;2023-02-18T15:36:21;10.45;;;2.15;;
69260;SDS011;56378;52.404;20.816;2023-02-18T15:38:49;12.40;;;2.70;;
69260;SDS011;56378;52.404;20.816;2023-02-18T15:41:15;10.00;;;2.38;;
69260;SDS011;56378;52.404;20.816;2023-02-18T15:43:50;11.93;;;2.70;;
69260;SDS011;56378;52.404;20.816;2023-02-18T15:46:19;9.55;;;2.10;;
69260;SDS011;56378;52.404;20.816;2023-02-18T15:48:47;10.10;;;2.10;;
69260;SDS011;56378;52.404;20.816;2023-02-18T15:51:19;12.55;;;2.50;;
69260;SDS011;56378;52.404;20.816;2023-02-18T15:53:49;23.23;;;6.00;;
69260;SDS011;56378;52.404;20.816;2023-02-18T15:56:20;16.65;;;4.43;;
69260;SDS011;56378;52.404;20.816;2023-02-18T16:01:46;16.80;;;5.68;;
69260;SDS011;56378;52.404;20.816;2023-02-18T16:04:14;18.67;;;5.40;;
69260;SDS011;56378;52.404;20.816;2023-02-18T16:06:44;13.88;;;4.10;;
69260;SDS011;56378;52.404;20.816;2023-02-18T16:09:13;13.70;;;3.47;;
69260;SDS011;56378;52.404;20.816;2023-02-18T16:11:44;11.80;;;2.88;;
69260;SDS011;56378;52.404;20.816;2023-02-18T16:14:26;9.32;;;2.40;;
69260;SDS011;56378;52.404;20.816;2023-02-18T16:19:42;9.70;;;2.28;;
69260;SDS011;56378;52.404;20.816;2023-02-18T16:22:32;7.73;;;2.40;;
69260;SDS011;56378;52.404;20.816;2023-02-18T16:25:14;12.32;;;2.80;;
69260;SDS011;56378;52.404;20.816;2023-02-18T16:27:53;14.38;;;3.80;;
69260;SDS011;56378;52.404;20.816;2023-02-18T16:30:30;10.00;;;3.08;;
69260;SDS011;56378;52.404;20.816;2023-02-18T16:32:57;11.07;;;3.28;;
69260;SDS011;56378;52.404;20.816;2023-02-18T16:35:24;14.00;;;5.30;;
69260;SDS011;56378;52.404;20.816;2023-02-18T16:37:53;18.38;;;4.63;;
69260;SDS011;56378;52.404;20.816;2023-02-18T16:42:53;11.10;;;3.80;;
69260;SDS011;56378;52.404;20.816;2023-02-18T16:45:20;15.95;;;4.85;;
69260;SDS011;56378;52.404;20.816;2023-02-18T16:47:55;20.07;;;6.20;;
69260;SDS011;56378;52.404;20.816;2023-02-18T16:50:21;16.17;;;5.60;;
69260;SDS011;56378;52.404;20.816;2023-02-18T16:52:48;16.65;;;5.47;;
69260;SDS011;56378;52.404;20.816;2023-02-18T16:55:15;15.85;;;6.03;;
69260;SDS011;56378;52.404;20.816;2023-02-18T16:57:46;18.63;;;5.10;;
69260;SDS011;56378;52.404;20.816;2023-02-18T17:00:13;15.82;;;4.85;;
69260;SDS011;56378;52.404;20.816;2023-02-18T17:02:41;13.70;;;3.72;;
69260;SDS011;56378;52.404;20.816;2023-02-18T17:05:12;12.40;;;3.90;;
69260;SDS011;56378;52.404;20.816;2023-02-18T17:07:45;14.35;;;3.95;;
69260;SDS011;56378;52.404;20.816;2023-02-18T17:10:11;12.23;;;3.50;;
69260;SDS011;56378;52.404;20.816;2023-02-18T17:12:37;13.60;;;3.50;;
69260;SDS011;56378;52.404;20.816;2023-02-18T17:17:50;14.00;;;3.83;;
69260;SDS011;56378;52.404;20.816;2023-02-18T17:20:16;15.77;;;4.27;;
69260;SDS011;56378;52.404;20.816;2023-02-18T17:22:42;20.38;;;6.82;;
69260;SDS011;56378;52.404;20.816;2023-02-18T17:25:40;19.03;;;5.97;;
69260;SDS011;56378;52.404;20.816;2023-02-18T17:28:01;18.33;;;5.88;;
69260;SDS011;56378;52.404;20.816;2023-02-18T17:30:27;13.55;;;5.43;;
69260;SDS011;56378;52.404;20.816;2023-02-18T17:32:53;15.98;;;4.90;;
69260;SDS011;56378;52.404;20.816;2023-02-18T17:35:21;19.67;;;7.27;;
69260;SDS011;56378;52.404;20.816;2023-02-18T17:37:47;16.55;;;6.40;;
69260;SDS011;56378;52.404;20.816;2023-02-18T17:42:49;13.95;;;4.18;;
69260;SDS011;56378;52.404;20.816;2023-02-18T17:45:23;9.60;;;3.00;;
69260;SDS011;56378;52.404;20.816;2023-02-18T17:47:57;7.95;;;2.97;;